createdAt,value
2022-11-29T00:03:07.982Z,22.85
2022-11-29T00:07:00.609Z,23.95
2022-11-29T00:10:53.676Z,23.17
2022-11-29T00:14:46.626Z,23.55
2022-11-29T00:18:39.497Z,25.27
2022-11-29T00:22:32.057Z,22.95
2022-11-29T00:26:24.796Z,21.58
2022-11-29T00:30:18.385Z,22.25
2022-11-29T00:34:12.632Z,21.60
2022-11-29T00:38:05.176Z,20.38
2022-11-29T00:41:57.654Z,21.30
2022-11-29T00:45:50.344Z,21.83
2022-11-29T00:49:42.973Z,23.17
2022-11-29T00:53:36.366Z,20.60
2022-11-29T00:57:29.006Z,23.30
2022-11-29T01:01:21.820Z,22.35
2022-11-29T01:05:14.494Z,23.52
2022-11-29T01:09:07.085Z,23.80
2022-11-29T01:12:59.612Z,22.40
2022-11-29T01:16:52.289Z,22.17
2022-11-29T01:20:44.712Z,21.35
2022-11-29T01:24:37.270Z,20.80
2022-11-29T01:28:30.115Z,19.75
2022-11-29T01:32:23.334Z,21.67
2022-11-29T01:36:15.985Z,20.55
2022-11-29T01:40:08.746Z,21.45
2022-11-29T01:44:28.053Z,19.42
2022-11-29T01:48:24.380Z,20.13
2022-11-29T01:52:24.735Z,20.02
2022-11-29T01:56:17.423Z,19.90
2022-11-29T02:00:13.337Z,19.70
2022-11-29T02:04:06.495Z,19.73
2022-11-29T02:08:00.160Z,18.98
2022-11-29T02:12:22.576Z,19.70
2022-11-29T02:16:45.716Z,18.15
2022-11-29T02:21:18.260Z,19.00
2022-11-29T02:25:58.884Z,17.60
2022-11-29T02:30:16.321Z,16.75
2022-11-29T02:34:17.803Z,17.70
2022-11-29T02:38:41.528Z,18.17
2022-11-29T02:43:04.440Z,16.40
2022-11-29T02:47:08.029Z,15.07
2022-11-29T02:51:13.652Z,15.10
2022-11-29T02:55:44.247Z,15.65
2022-11-29T02:59:55.088Z,14.90
2022-11-29T03:03:52.376Z,15.55
2022-11-29T03:07:49.515Z,16.35
2022-11-29T03:12:01.479Z,15.75
2022-11-29T03:16:07.932Z,14.65
2022-11-29T03:20:21.712Z,13.80
2022-11-29T03:24:22.944Z,18.02
2022-11-29T03:28:23.907Z,14.68
2022-11-29T03:32:27.274Z,14.27
2022-11-29T03:36:37.262Z,14.93
2022-11-29T03:40:48.144Z,14.63
2022-11-29T03:44:50.582Z,14.10
2022-11-29T03:48:50.045Z,12.98
2022-11-29T03:52:53.840Z,12.43
2022-11-29T03:56:46.732Z,13.27
2022-11-29T04:01:18.797Z,12.85
2022-11-29T04:05:17.929Z,13.30
2022-11-29T04:09:24.404Z,12.73
2022-11-29T04:14:07.806Z,12.63
2022-11-29T04:18:26.034Z,12.85
2022-11-29T04:22:54.194Z,12.05
2022-11-29T04:26:52.303Z,12.02
2022-11-29T04:31:25.397Z,11.65
2022-11-29T04:35:33.137Z,11.07
2022-11-29T04:39:37.704Z,11.57
2022-11-29T04:44:17.861Z,11.32
2022-11-29T04:48:33.014Z,11.90
2022-11-29T04:52:28.297Z,12.65
2022-11-29T04:56:36.745Z,12.50
2022-11-29T05:00:35.297Z,12.18
2022-11-29T05:04:36.802Z,12.15
2022-11-29T05:08:41.281Z,11.10
2022-11-29T05:12:52.433Z,11.95
2022-11-29T05:16:48.320Z,11.63
2022-11-29T05:20:53.960Z,12.75
2022-11-29T05:24:55.679Z,12.95
2022-11-29T05:29:05.409Z,11.93
2022-11-29T05:33:24.198Z,13.77
2022-11-29T05:37:33.812Z,12.48
2022-11-29T05:41:56.901Z,12.60
2022-11-29T05:45:57.363Z,12.02
2022-11-29T05:50:16.350Z,13.18
2022-11-29T05:54:41.032Z,12.02
2022-11-29T05:58:45.710Z,14.18
2022-11-29T06:03:03.807Z,12.95
2022-11-29T06:07:18.095Z,13.43
2022-11-29T06:11:33.132Z,13.32
2022-11-29T06:15:53.340Z,13.13
2022-11-29T06:20:26.559Z,14.07
2022-11-29T06:24:25.870Z,14.88
2022-11-29T06:28:30.855Z,14.43
2022-11-29T06:32:37.703Z,14.93
2022-11-29T06:36:43.188Z,15.30
2022-11-29T06:40:35.911Z,14.57
2022-11-29T06:44:28.857Z,14.07
2022-11-29T06:48:27.761Z,13.90
2022-11-29T06:52:43.970Z,14.95
2022-11-29T06:57:08.497Z,13.73
2022-11-29T07:01:15.195Z,13.75
2022-11-29T07:05:22.778Z,14.43
2022-11-29T07:09:20.400Z,14.60
2022-11-29T07:13:14.016Z,13.82
2022-11-29T07:17:12.434Z,13.50
2022-11-29T07:21:16.011Z,13.65
2022-11-29T07:25:28.817Z,11.30
2022-11-29T07:29:46.985Z,12.30
2022-11-29T07:33:48.490Z,12.70
2022-11-29T07:37:57.867Z,12.88
2022-11-29T07:41:59.458Z,13.82
2022-11-29T07:45:52.187Z,12.38
2022-11-29T07:49:44.965Z,14.32
2022-11-29T07:53:42.437Z,14.75
2022-11-29T07:57:36.817Z,16.20
2022-11-29T08:01:29.599Z,15.13
2022-11-29T08:05:23.389Z,13.82
2022-11-29T08:09:16.132Z,12.55
2022-11-29T08:13:09.433Z,15.60
2022-11-29T08:17:01.821Z,17.05
2022-11-29T08:20:54.430Z,16.63
2022-11-29T08:24:47.581Z,17.15
2022-11-29T08:28:40.525Z,17.65
2022-11-29T08:32:34.399Z,17.60
2022-11-29T08:36:27.073Z,18.23
2022-11-29T08:40:19.885Z,16.83
2022-11-29T08:44:12.453Z,18.15
2022-11-29T08:48:05.659Z,15.23
2022-11-29T08:52:16.905Z,16.63
2022-11-29T08:56:59.751Z,17.05
2022-11-29T09:00:24.682Z,16.88
2022-11-29T09:04:17.849Z,17.58
2022-11-29T09:08:10.455Z,16.58
2022-11-29T09:12:03.271Z,15.68
2022-11-29T09:15:55.782Z,16.17
2022-11-29T09:19:48.318Z,16.13
2022-11-29T09:23:43.186Z,16.55
2022-11-29T09:27:35.618Z,14.80
2022-11-29T09:31:29.965Z,14.88
2022-11-29T09:35:22.421Z,16.23
2022-11-29T09:39:14.970Z,15.80
2022-11-29T09:43:20.328Z,14.55
2022-11-29T09:47:50.533Z,16.83
2022-11-29T09:52:16.129Z,15.32
2022-11-29T09:56:23.707Z,17.10
2022-11-29T10:00:20.312Z,16.50
2022-11-29T10:04:18.570Z,15.65
2022-11-29T10:08:33.998Z,15.45
2022-11-29T10:12:52.862Z,15.40
2022-11-29T10:16:57.618Z,15.63
2022-11-29T10:20:53.953Z,14.73
2022-11-29T10:24:51.932Z,15.35
2022-11-29T10:28:47.776Z,16.38
2022-11-29T10:32:41.064Z,16.48
2022-11-29T10:36:41.043Z,15.55
2022-11-29T10:40:36.422Z,15.55
2022-11-29T10:44:32.104Z,16.13
2022-11-29T10:48:31.978Z,16.05
2022-11-29T10:52:24.841Z,15.07
2022-11-29T10:56:24.303Z,14.57
2022-11-29T11:00:17.185Z,13.20
2022-11-29T11:04:17.211Z,13.40
2022-11-29T11:08:18.089Z,13.02
2022-11-29T11:12:17.139Z,12.82
2022-11-29T11:16:20.741Z,12.85
2022-11-29T11:20:22.861Z,11.90
2022-11-29T11:24:25.138Z,14.25
2022-11-29T11:28:27.344Z,11.52
2022-11-29T11:32:20.382Z,12.45
2022-11-29T11:36:24.085Z,12.63
2022-11-29T11:40:29.447Z,10.82
2022-11-29T11:44:49.968Z,11.32
2022-11-29T11:48:42.740Z,11.00
2022-11-29T11:52:50.650Z,11.32
2022-11-29T11:56:43.673Z,11.00
2022-11-29T12:01:09.405Z,11.48
2022-11-29T12:05:05.119Z,11.70
2022-11-29T12:09:06.568Z,11.45
2022-11-29T12:13:00.974Z,10.45
2022-11-29T12:17:01.923Z,10.85
2022-11-29T12:20:58.589Z,11.77
2022-11-29T12:24:59.346Z,12.13
2022-11-29T12:28:52.936Z,11.68
2022-11-29T12:33:04.653Z,12.05
2022-11-29T12:37:20.648Z,11.48
2022-11-29T12:41:13.591Z,10.55
2022-11-29T12:45:30.268Z,11.38
2022-11-29T12:49:22.915Z,10.93
2022-11-29T12:53:40.016Z,11.05
2022-11-29T12:58:00.694Z,11.23
2022-11-29T13:02:23.646Z,10.75
2022-11-29T13:06:40.901Z,10.48
2022-11-29T13:10:55.215Z,11.00
2022-11-29T13:15:09.731Z,10.48
2022-11-29T13:19:29.858Z,12.40
2022-11-29T13:23:45.707Z,15.20
2022-11-29T13:28:02.038Z,13.98
2022-11-29T13:31:54.998Z,12.38
2022-11-29T13:35:56.581Z,10.48
2022-11-29T13:39:49.283Z,11.30
2022-11-29T13:43:45.549Z,12.25
2022-11-29T13:47:56.001Z,12.00
2022-11-29T13:51:49.581Z,12.38
2022-11-29T13:56:25.128Z,12.55
2022-11-29T14:00:44.788Z,12.00
2022-11-29T14:04:39.621Z,12.93
2022-11-29T14:08:55.140Z,14.02
2022-11-29T14:12:56.885Z,12.40
2022-11-29T14:16:52.490Z,12.68
2022-11-29T14:20:54.996Z,14.15
2022-11-29T14:25:08.175Z,13.98
2022-11-29T14:29:47.312Z,14.13
2022-11-29T14:33:58.407Z,13.75
2022-11-29T14:37:55.842Z,14.43
2022-11-29T14:46:16.065Z,12.95
2022-11-29T14:50:47.747Z,15.55
2022-11-29T14:55:24.488Z,14.15
2022-11-29T14:59:46.275Z,13.57
2022-11-29T15:03:49.794Z,14.00
2022-11-29T15:08:20.797Z,12.95
2022-11-29T15:12:18.752Z,13.38
2022-11-29T15:16:36.955Z,14.23
2022-11-29T15:20:48.461Z,12.75
2022-11-29T15:25:01.419Z,15.90
2022-11-29T15:28:53.932Z,17.50
2022-11-29T15:32:46.757Z,18.05
2022-11-29T15:36:43.572Z,18.58
2022-11-29T15:40:37.351Z,19.53
2022-11-29T15:44:32.984Z,25.80
2022-11-29T15:48:26.800Z,21.85
2022-11-29T15:52:30.831Z,18.40
2022-11-29T15:56:42.726Z,16.50
2022-11-29T16:00:35.808Z,15.88
2022-11-29T16:04:29.579Z,27.63
2022-11-29T16:08:22.784Z,19.73
2022-11-29T16:12:17.972Z,16.77
2022-11-29T16:16:20.946Z,18.40
2022-11-29T16:20:13.886Z,17.65
2022-11-29T16:24:23.488Z,17.25
2022-11-29T16:28:16.588Z,17.45
2022-11-29T16:32:36.965Z,17.50
2022-11-29T16:36:29.851Z,19.75
2022-11-29T16:40:27.170Z,20.75
2022-11-29T16:44:41.888Z,24.05
2022-11-29T16:48:38.939Z,23.90
2022-11-29T16:52:33.686Z,21.63
2022-11-29T16:56:29.233Z,21.25
2022-11-29T17:00:24.905Z,24.08
2022-11-29T17:04:23.815Z,28.77
2022-11-29T17:08:17.761Z,25.20
2022-11-29T17:12:13.926Z,20.00
2022-11-29T17:16:12.921Z,22.08
2022-11-29T17:20:07.511Z,21.33
2022-11-29T17:24:00.074Z,20.92
2022-11-29T17:27:52.409Z,18.67
2022-11-29T17:31:46.237Z,18.75
2022-11-29T17:35:39.002Z,18.38
2022-11-29T17:39:32.403Z,17.63
2022-11-29T17:43:25.481Z,18.60
2022-11-29T17:47:18.424Z,21.08
2022-11-29T17:51:36.047Z,24.17
2022-11-29T17:55:28.253Z,29.30
2022-11-29T17:59:22.759Z,31.48
2022-11-29T18:03:15.805Z,30.75
2022-11-29T18:07:08.859Z,28.52
2022-11-29T18:11:11.092Z,26.00
2022-11-29T18:15:04.152Z,25.00
2022-11-29T18:18:59.056Z,24.83
2022-11-29T18:22:53.852Z,25.58
2022-11-29T18:26:47.367Z,26.10
2022-11-29T18:30:40.612Z,25.13
2022-11-29T18:34:33.639Z,24.00
2022-11-29T18:38:26.864Z,25.98
2022-11-29T18:42:19.526Z,26.98
2022-11-29T18:46:15.863Z,32.05
2022-11-29T18:50:09.448Z,31.83
2022-11-29T18:54:06.464Z,28.25
2022-11-29T18:57:59.525Z,29.20
2022-11-29T19:01:53.771Z,26.65
2022-11-29T19:05:52.227Z,28.20
2022-11-29T19:09:46.598Z,26.75
2022-11-29T19:13:41.664Z,30.98
2022-11-29T19:17:38.804Z,29.60
2022-11-29T19:21:34.762Z,30.80
2022-11-29T19:25:28.263Z,32.70
2022-11-29T19:29:22.055Z,32.38
2022-11-29T19:33:15.187Z,33.53
2022-11-29T19:37:09.915Z,27.00
2022-11-29T19:41:10.360Z,26.35
2022-11-29T19:45:17.023Z,24.80
2022-11-29T19:49:12.768Z,24.77
2022-11-29T19:53:05.491Z,23.75
2022-11-29T19:56:58.824Z,26.15
2022-11-29T20:00:51.357Z,25.65
2022-11-29T20:04:47.034Z,31.33
2022-11-29T20:08:41.055Z,39.10
2022-11-29T20:12:34.927Z,29.60
2022-11-29T20:16:29.266Z,26.23
2022-11-29T20:20:22.203Z,26.40
2022-11-29T20:24:16.624Z,27.20
2022-11-29T20:28:12.699Z,31.05
2022-11-29T20:32:05.565Z,32.78
2022-11-29T20:36:12.112Z,30.55
2022-11-29T20:40:17.184Z,29.02
2022-11-29T20:44:13.771Z,26.05
2022-11-29T20:48:20.549Z,25.63
2022-11-29T20:52:51.128Z,25.38
2022-11-29T20:56:44.273Z,24.60
2022-11-29T21:00:37.506Z,24.30
2022-11-29T21:04:30.540Z,24.95
2022-11-29T21:08:26.032Z,24.33
2022-11-29T21:12:18.842Z,23.92
2022-11-29T21:16:12.612Z,25.38
2022-11-29T21:20:06.105Z,26.20
2022-11-29T21:24:09.193Z,25.15
2022-11-29T21:28:02.502Z,27.90
2022-11-29T21:31:55.417Z,25.13
2022-11-29T21:35:53.473Z,25.00
2022-11-29T21:39:47.828Z,25.13
2022-11-29T21:44:05.626Z,23.85
2022-11-29T21:47:53.680Z,24.52
2022-11-29T21:51:46.393Z,24.92
2022-11-29T21:55:38.766Z,25.10
2022-11-29T21:59:31.404Z,24.73
2022-11-29T22:03:24.040Z,23.73
2022-11-29T22:07:16.829Z,27.27
2022-11-29T22:11:15.422Z,27.15
2022-11-29T22:15:08.641Z,25.33
2022-11-29T22:19:01.284Z,24.33
2022-11-29T22:22:58.548Z,23.67
2022-11-29T22:26:52.745Z,22.45
2022-11-29T22:30:45.329Z,23.88
2022-11-29T22:34:37.977Z,23.75
2022-11-29T22:38:30.713Z,23.55
2022-11-29T22:42:23.214Z,23.27
2022-11-29T22:46:20.709Z,22.13
2022-11-29T22:54:08.029Z,25.65
2022-11-29T22:58:00.910Z,26.95
2022-11-29T23:01:53.951Z,28.98
2022-11-29T23:05:46.544Z,29.15
2022-11-29T23:09:39.342Z,29.73
2022-11-29T23:13:34.642Z,28.45
2022-11-29T23:17:27.455Z,30.48
2022-11-29T23:21:35.372Z,28.95
2022-11-29T23:25:27.848Z,28.10
2022-11-29T23:29:20.392Z,27.23
2022-11-29T23:33:13.009Z,24.98
2022-11-29T23:37:05.604Z,20.02
2022-11-29T23:40:58.309Z,19.65
2022-11-29T23:44:50.901Z,19.25
2022-11-29T23:48:44.180Z,18.35
2022-11-29T23:52:37.287Z,18.27
2022-11-29T23:56:35.434Z,18.50
